sensor_id;sensor_type;location;lat;lon;timestamp;P1;durP1;ratioP1;P2;durP2;ratioP2
3155;SDS011;1588;50.892;7.082;2023-12-20T00:02:00;15.40;;;6.23;;
3155;SDS011;1588;50.892;7.082;2023-12-20T00:07:03;14.20;;;6.80;;
3155;SDS011;1588;50.892;7.082;2023-12-20T00:12:10;12.23;;;5.30;;
3155;SDS011;1588;50.892;7.082;2023-12-20T00:17:12;9.87;;;5.40;;
3155;SDS011;1588;50.892;7.082;2023-12-20T00:22:14;11.87;;;5.27;;
3155;SDS011;1588;50.892;7.082;2023-12-20T00:27:21;15.30;;;6.63;;
3155;SDS011;1588;50.892;7.082;2023-12-20T00:32:25;12.20;;;6.30;;
3155;SDS011;1588;50.892;7.082;2023-12-20T00:37:34;18.10;;;6.70;;
3155;SDS011;1588;50.892;7.082;2023-12-20T00:42:50;10.50;;;6.20;;
3155;SDS011;1588;50.892;7.082;2023-12-20T00:47:55;13.20;;;6.60;;
3155;SDS011;1588;50.892;7.082;2023-12-20T00:53:01;14.13;;;6.83;;
3155;SDS011;1588;50.892;7.082;2023-12-20T00:58:27;12.80;;;6.17;;
3155;SDS011;1588;50.892;7.082;2023-12-20T01:03:29;15.27;;;6.20;;
3155;SDS011;1588;50.892;7.082;2023-12-20T01:08:48;7.00;;;3.67;;
3155;SDS011;1588;50.892;7.082;2023-12-20T01:13:54;8.10;;;3.70;;
3155;SDS011;1588;50.892;7.082;2023-12-20T01:18:57;7.60;;;3.70;;
3155;SDS011;1588;50.892;7.082;2023-12-20T01:24:02;9.77;;;4.20;;
3155;SDS011;1588;50.892;7.082;2023-12-20T01:29:10;8.60;;;3.90;;
3155;SDS011;1588;50.892;7.082;2023-12-20T01:34:26;13.50;;;4.10;;
3155;SDS011;1588;50.892;7.082;2023-12-20T01:39:30;30.67;;;4.40;;
3155;SDS011;1588;50.892;7.082;2023-12-20T01:44:34;12.70;;;4.50;;
3155;SDS011;1588;50.892;7.082;2023-12-20T01:49:39;13.07;;;5.40;;
3155;SDS011;1588;50.892;7.082;2023-12-20T01:54:48;18.13;;;5.40;;
3155;SDS011;1588;50.892;7.082;2023-12-20T01:59:53;15.43;;;6.90;;
3155;SDS011;1588;50.892;7.082;2023-12-20T02:04:56;15.60;;;7.13;;
3155;SDS011;1588;50.892;7.082;2023-12-20T02:09:59;23.17;;;7.40;;
3155;SDS011;1588;50.892;7.082;2023-12-20T02:15:03;20.13;;;8.10;;
3155;SDS011;1588;50.892;7.082;2023-12-20T02:20:06;26.10;;;7.90;;
3155;SDS011;1588;50.892;7.082;2023-12-20T02:25:10;32.90;;;8.97;;
3155;SDS011;1588;50.892;7.082;2023-12-20T02:30:12;24.43;;;6.97;;
3155;SDS011;1588;50.892;7.082;2023-12-20T02:35:16;16.97;;;7.03;;
3155;SDS011;1588;50.892;7.082;2023-12-20T02:40:19;15.33;;;6.33;;
3155;SDS011;1588;50.892;7.082;2023-12-20T02:45:22;28.90;;;5.47;;
3155;SDS011;1588;50.892;7.082;2023-12-20T02:50:24;14.33;;;5.60;;
3155;SDS011;1588;50.892;7.082;2023-12-20T02:55:28;16.60;;;4.40;;
3155;SDS011;1588;50.892;7.082;2023-12-20T03:00:30;16.90;;;3.57;;
3155;SDS011;1588;50.892;7.082;2023-12-20T03:05:51;22.43;;;3.87;;
3155;SDS011;1588;50.892;7.082;2023-12-20T03:10:55;9.80;;;2.57;;
3155;SDS011;1588;50.892;7.082;2023-12-20T03:15:57;9.70;;;2.23;;
3155;SDS011;1588;50.892;7.082;2023-12-20T03:20:59;10.10;;;2.77;;
3155;SDS011;1588;50.892;7.082;2023-12-20T03:26:03;28.30;;;3.40;;
3155;SDS011;1588;50.892;7.082;2023-12-20T03:31:09;15.83;;;3.33;;
3155;SDS011;1588;50.892;7.082;2023-12-20T03:36:11;19.57;;;3.70;;
3155;SDS011;1588;50.892;7.082;2023-12-20T03:41:15;9.60;;;2.97;;
3155;SDS011;1588;50.892;7.082;2023-12-20T03:46:19;15.03;;;2.67;;
3155;SDS011;1588;50.892;7.082;2023-12-20T03:51:22;12.97;;;2.67;;
3155;SDS011;1588;50.892;7.082;2023-12-20T03:56:25;13.20;;;3.40;;
3155;SDS011;1588;50.892;7.082;2023-12-20T04:01:28;13.83;;;3.47;;
3155;SDS011;1588;50.892;7.082;2023-12-20T04:06:31;17.03;;;3.00;;
3155;SDS011;1588;50.892;7.082;2023-12-20T04:11:34;28.77;;;4.63;;
3155;SDS011;1588;50.892;7.082;2023-12-20T04:16:38;36.63;;;3.50;;
3155;SDS011;1588;50.892;7.082;2023-12-20T04:21:40;14.33;;;3.70;;
3155;SDS011;1588;50.892;7.082;2023-12-20T04:26:44;13.63;;;3.17;;
3155;SDS011;1588;50.892;7.082;2023-12-20T04:31:46;9.97;;;2.80;;
3155;SDS011;1588;50.892;7.082;2023-12-20T04:36:51;16.93;;;3.93;;
3155;SDS011;1588;50.892;7.082;2023-12-20T04:41:55;12.23;;;3.40;;
3155;SDS011;1588;50.892;7.082;2023-12-20T04:46:57;13.60;;;3.77;;
3155;SDS011;1588;50.892;7.082;2023-12-20T04:52:00;18.33;;;3.03;;
3155;SDS011;1588;50.892;7.082;2023-12-20T04:57:07;11.30;;;3.90;;
3155;SDS011;1588;50.892;7.082;2023-12-20T05:02:09;11.07;;;3.60;;
3155;SDS011;1588;50.892;7.082;2023-12-20T05:07:12;22.37;;;4.17;;
3155;SDS011;1588;50.892;7.082;2023-12-20T05:12:15;13.83;;;3.77;;
3155;SDS011;1588;50.892;7.082;2023-12-20T05:17:20;15.00;;;3.27;;
3155;SDS011;1588;50.892;7.082;2023-12-20T05:22:22;15.93;;;4.27;;
3155;SDS011;1588;50.892;7.082;2023-12-20T05:27:26;16.37;;;3.60;;
3155;SDS011;1588;50.892;7.082;2023-12-20T05:32:28;7.07;;;3.70;;
3155;SDS011;1588;50.892;7.082;2023-12-20T05:37:31;13.90;;;3.80;;
3155;SDS011;1588;50.892;7.082;2023-12-20T05:42:35;13.17;;;3.77;;
3155;SDS011;1588;50.892;7.082;2023-12-20T05:47:38;15.40;;;4.23;;
3155;SDS011;1588;50.892;7.082;2023-12-20T05:52:40;10.10;;;3.70;;
3155;SDS011;1588;50.892;7.082;2023-12-20T05:57:44;28.03;;;4.63;;
3155;SDS011;1588;50.892;7.082;2023-12-20T06:02:46;14.33;;;4.10;;
3155;SDS011;1588;50.892;7.082;2023-12-20T06:07:48;11.73;;;3.10;;
3155;SDS011;1588;50.892;7.082;2023-12-20T06:12:52;17.07;;;3.80;;
3155;SDS011;1588;50.892;7.082;2023-12-20T06:17:56;19.00;;;3.97;;
3155;SDS011;1588;50.892;7.082;2023-12-20T06:22:58;13.00;;;4.70;;
3155;SDS011;1588;50.892;7.082;2023-12-20T06:28:02;32.07;;;5.03;;
3155;SDS011;1588;50.892;7.082;2023-12-20T06:33:04;25.83;;;4.57;;
3155;SDS011;1588;50.892;7.082;2023-12-20T06:38:07;15.10;;;4.27;;
3155;SDS011;1588;50.892;7.082;2023-12-20T06:43:11;16.40;;;4.53;;
3155;SDS011;1588;50.892;7.082;2023-12-20T06:48:13;14.03;;;4.30;;
3155;SDS011;1588;50.892;7.082;2023-12-20T06:53:16;11.30;;;3.80;;
3155;SDS011;1588;50.892;7.082;2023-12-20T06:58:19;18.30;;;4.67;;
3155;SDS011;1588;50.892;7.082;2023-12-20T07:03:21;19.63;;;3.70;;
3155;SDS011;1588;50.892;7.082;2023-12-20T07:08:24;10.10;;;3.50;;
3155;SDS011;1588;50.892;7.082;2023-12-20T07:13:27;20.97;;;3.40;;
3155;SDS011;1588;50.892;7.082;2023-12-20T07:18:29;12.83;;;3.90;;
3155;SDS011;1588;50.892;7.082;2023-12-20T07:23:32;14.20;;;5.10;;
3155;SDS011;1588;50.892;7.082;2023-12-20T07:28:35;8.83;;;4.03;;
3155;SDS011;1588;50.892;7.082;2023-12-20T07:33:37;25.77;;;4.40;;
3155;SDS011;1588;50.892;7.082;2023-12-20T07:38:40;16.97;;;4.40;;
3155;SDS011;1588;50.892;7.082;2023-12-20T07:43:46;14.87;;;3.30;;
3155;SDS011;1588;50.892;7.082;2023-12-20T07:48:48;11.47;;;3.10;;
3155;SDS011;1588;50.892;7.082;2023-12-20T07:53:51;18.60;;;4.60;;
3155;SDS011;1588;50.892;7.082;2023-12-20T07:58:55;15.00;;;3.83;;
3155;SDS011;1588;50.892;7.082;2023-12-20T08:03:57;12.57;;;3.70;;
3155;SDS011;1588;50.892;7.082;2023-12-20T08:08:59;13.10;;;4.00;;
3155;SDS011;1588;50.892;7.082;2023-12-20T08:14:03;12.00;;;4.43;;
3155;SDS011;1588;50.892;7.082;2023-12-20T08:19:05;15.17;;;4.50;;
3155;SDS011;1588;50.892;7.082;2023-12-20T08:24:10;15.20;;;4.67;;
3155;SDS011;1588;50.892;7.082;2023-12-20T08:29:13;12.33;;;3.97;;
3155;SDS011;1588;50.892;7.082;2023-12-20T08:34:16;16.73;;;4.37;;
3155;SDS011;1588;50.892;7.082;2023-12-20T08:39:18;11.07;;;3.60;;
3155;SDS011;1588;50.892;7.082;2023-12-20T08:44:22;15.83;;;4.40;;
3155;SDS011;1588;50.892;7.082;2023-12-20T08:49:24;16.00;;;4.30;;
3155;SDS011;1588;50.892;7.082;2023-12-20T08:54:27;18.53;;;4.07;;
3155;SDS011;1588;50.892;7.082;2023-12-20T08:59:30;11.90;;;4.27;;
3155;SDS011;1588;50.892;7.082;2023-12-20T09:04:32;9.70;;;4.40;;
3155;SDS011;1588;50.892;7.082;2023-12-20T09:09:35;19.90;;;4.57;;
3155;SDS011;1588;50.892;7.082;2023-12-20T09:14:38;20.87;;;4.63;;
3155;SDS011;1588;50.892;7.082;2023-12-20T09:19:41;16.40;;;4.40;;
3155;SDS011;1588;50.892;7.082;2023-12-20T09:24:44;24.23;;;4.70;;
3155;SDS011;1588;50.892;7.082;2023-12-20T09:29:48;12.37;;;3.53;;
3155;SDS011;1588;50.892;7.082;2023-12-20T09:34:50;15.83;;;3.20;;
3155;SDS011;1588;50.892;7.082;2023-12-20T09:39:53;12.73;;;3.50;;
3155;SDS011;1588;50.892;7.082;2023-12-20T09:44:56;15.53;;;3.73;;
3155;SDS011;1588;50.892;7.082;2023-12-20T09:50:04;9.70;;;3.10;;
3155;SDS011;1588;50.892;7.082;2023-12-20T09:55:09;11.43;;;3.50;;
3155;SDS011;1588;50.892;7.082;2023-12-20T10:00:16;14.40;;;3.67;;
3155;SDS011;1588;50.892;7.082;2023-12-20T10:05:19;11.27;;;3.43;;
3155;SDS011;1588;50.892;7.082;2023-12-20T10:10:29;10.73;;;3.57;;
3155;SDS011;1588;50.892;7.082;2023-12-20T10:15:33;12.97;;;3.17;;
3155;SDS011;1588;50.892;7.082;2023-12-20T10:20:40;8.43;;;3.00;;
3155;SDS011;1588;50.892;7.082;2023-12-20T10:25:43;26.73;;;4.00;;
3155;SDS011;1588;50.892;7.082;2023-12-20T10:30:58;10.90;;;3.37;;
3155;SDS011;1588;50.892;7.082;2023-12-20T10:36:00;13.20;;;2.97;;
3155;SDS011;1588;50.892;7.082;2023-12-20T10:41:03;14.60;;;4.17;;
3155;SDS011;1588;50.892;7.082;2023-12-20T10:46:09;11.80;;;3.67;;
3155;SDS011;1588;50.892;7.082;2023-12-20T10:51:12;11.20;;;3.73;;
3155;SDS011;1588;50.892;7.082;2023-12-20T10:56:16;18.57;;;4.00;;
3155;SDS011;1588;50.892;7.082;2023-12-20T11:01:21;9.90;;;3.40;;
3155;SDS011;1588;50.892;7.082;2023-12-20T11:06:27;19.97;;;3.57;;
3155;SDS011;1588;50.892;7.082;2023-12-20T11:11:51;12.47;;;3.23;;
3155;SDS011;1588;50.892;7.082;2023-12-20T11:17:09;11.47;;;3.33;;
3155;SDS011;1588;50.892;7.082;2023-12-20T11:22:14;15.27;;;3.30;;
3155;SDS011;1588;50.892;7.082;2023-12-20T11:27:18;11.63;;;3.33;;
3155;SDS011;1588;50.892;7.082;2023-12-20T11:32:31;15.13;;;3.70;;
3155;SDS011;1588;50.892;7.082;2023-12-20T11:37:47;8.83;;;3.23;;
3155;SDS011;1588;50.892;7.082;2023-12-20T11:42:56;11.03;;;2.90;;
3155;SDS011;1588;50.892;7.082;2023-12-20T11:48:00;18.27;;;3.10;;
3155;SDS011;1588;50.892;7.082;2023-12-20T11:53:03;12.17;;;3.60;;
3155;SDS011;1588;50.892;7.082;2023-12-20T11:58:06;13.13;;;4.13;;
3155;SDS011;1588;50.892;7.082;2023-12-20T12:03:14;15.97;;;3.73;;
3155;SDS011;1588;50.892;7.082;2023-12-20T12:08:17;8.83;;;3.20;;
3155;SDS011;1588;50.892;7.082;2023-12-20T12:13:19;8.83;;;2.80;;
3155;SDS011;1588;50.892;7.082;2023-12-20T12:18:23;13.60;;;3.53;;
3155;SDS011;1588;50.892;7.082;2023-12-20T12:23:25;8.63;;;2.87;;
3155;SDS011;1588;50.892;7.082;2023-12-20T12:28:30;5.17;;;2.43;;
3155;SDS011;1588;50.892;7.082;2023-12-20T12:33:34;15.43;;;3.70;;
3155;SDS011;1588;50.892;7.082;2023-12-20T12:38:36;8.70;;;3.60;;
3155;SDS011;1588;50.892;7.082;2023-12-20T12:43:39;13.33;;;4.07;;
3155;SDS011;1588;50.892;7.082;2023-12-20T12:48:43;12.90;;;3.33;;
3155;SDS011;1588;50.892;7.082;2023-12-20T12:53:46;23.30;;;4.80;;
3155;SDS011;1588;50.892;7.082;2023-12-20T12:58:48;15.83;;;4.77;;
3155;SDS011;1588;50.892;7.082;2023-12-20T13:03:52;7.60;;;3.97;;
3155;SDS011;1588;50.892;7.082;2023-12-20T13:08:54;14.47;;;4.10;;
3155;SDS011;1588;50.892;7.082;2023-12-20T13:13:57;18.57;;;4.47;;
3155;SDS011;1588;50.892;7.082;2023-12-20T13:19:01;14.63;;;4.00;;
3155;SDS011;1588;50.892;7.082;2023-12-20T13:24:03;16.87;;;4.70;;
3155;SDS011;1588;50.892;7.082;2023-12-20T13:29:06;21.67;;;4.90;;
3155;SDS011;1588;50.892;7.082;2023-12-20T13:34:10;15.47;;;4.50;;
3155;SDS011;1588;50.892;7.082;2023-12-20T13:39:13;15.50;;;4.47;;
3155;SDS011;1588;50.892;7.082;2023-12-20T13:44:15;13.80;;;4.37;;
3155;SDS011;1588;50.892;7.082;2023-12-20T13:49:19;11.80;;;4.53;;
3155;SDS011;1588;50.892;7.082;2023-12-20T13:54:21;8.47;;;3.37;;
3155;SDS011;1588;50.892;7.082;2023-12-20T13:59:24;13.80;;;4.30;;
3155;SDS011;1588;50.892;7.082;2023-12-20T14:04:28;18.70;;;4.37;;
3155;SDS011;1588;50.892;7.082;2023-12-20T14:09:30;14.07;;;3.67;;
3155;SDS011;1588;50.892;7.082;2023-12-20T14:14:32;9.07;;;3.73;;
3155;SDS011;1588;50.892;7.082;2023-12-20T14:19:36;9.77;;;3.17;;
3155;SDS011;1588;50.892;7.082;2023-12-20T14:24:40;7.03;;;3.40;;
3155;SDS011;1588;50.892;7.082;2023-12-20T14:29:42;15.63;;;3.50;;
3155;SDS011;1588;50.892;7.082;2023-12-20T14:34:45;18.90;;;3.33;;
3155;SDS011;1588;50.892;7.082;2023-12-20T14:39:48;8.57;;;3.10;;
3155;SDS011;1588;50.892;7.082;2023-12-20T14:44:50;13.57;;;3.50;;
3155;SDS011;1588;50.892;7.082;2023-12-20T14:49:56;7.17;;;2.67;;
3155;SDS011;1588;50.892;7.082;2023-12-20T14:54:58;26.97;;;3.57;;
3155;SDS011;1588;50.892;7.082;2023-12-20T15:00:00;8.83;;;3.30;;
3155;SDS011;1588;50.892;7.082;2023-12-20T15:05:05;7.40;;;3.87;;
3155;SDS011;1588;50.892;7.082;2023-12-20T15:10:08;16.30;;;3.40;;
3155;SDS011;1588;50.892;7.082;2023-12-20T15:15:10;8.93;;;3.30;;
3155;SDS011;1588;50.892;7.082;2023-12-20T15:20:14;6.90;;;3.17;;
3155;SDS011;1588;50.892;7.082;2023-12-20T15:25:17;11.93;;;3.80;;
3155;SDS011;1588;50.892;7.082;2023-12-20T15:30:22;7.90;;;3.40;;
3155;SDS011;1588;50.892;7.082;2023-12-20T15:35:26;18.93;;;4.40;;
3155;SDS011;1588;50.892;7.082;2023-12-20T15:40:39;24.93;;;7.57;;
3155;SDS011;1588;50.892;7.082;2023-12-20T15:45:41;18.00;;;4.37;;
3155;SDS011;1588;50.892;7.082;2023-12-20T15:50:53;12.63;;;4.70;;
3155;SDS011;1588;50.892;7.082;2023-12-20T15:55:57;13.53;;;3.93;;
3155;SDS011;1588;50.892;7.082;2023-12-20T16:01:03;19.93;;;4.40;;
3155;SDS011;1588;50.892;7.082;2023-12-20T16:19:49;16.80;;;4.80;;
3155;SDS011;1588;50.892;7.082;2023-12-20T16:24:52;9.90;;;4.70;;
3155;SDS011;1588;50.892;7.082;2023-12-20T16:29:54;9.90;;;4.40;;
3155;SDS011;1588;50.892;7.082;2023-12-20T16:35:00;14.40;;;4.00;;
3155;SDS011;1588;50.892;7.082;2023-12-20T16:40:06;12.60;;;4.80;;
3155;SDS011;1588;50.892;7.082;2023-12-20T16:45:12;16.50;;;4.93;;
3155;SDS011;1588;50.892;7.082;2023-12-20T16:50:16;17.63;;;5.23;;
3155;SDS011;1588;50.892;7.082;2023-12-20T16:55:19;17.73;;;5.43;;
3155;SDS011;1588;50.892;7.082;2023-12-20T17:00:21;27.70;;;5.73;;
3155;SDS011;1588;50.892;7.082;2023-12-20T17:05:28;22.83;;;5.13;;
3155;SDS011;1588;50.892;7.082;2023-12-20T17:10:31;13.73;;;5.60;;
3155;SDS011;1588;50.892;7.082;2023-12-20T17:15:36;11.13;;;5.80;;
3155;SDS011;1588;50.892;7.082;2023-12-20T17:20:39;16.90;;;5.23;;
3155;SDS011;1588;50.892;7.082;2023-12-20T17:25:42;11.30;;;4.80;;
3155;SDS011;1588;50.892;7.082;2023-12-20T17:30:44;10.20;;;4.47;;
3155;SDS011;1588;50.892;7.082;2023-12-20T17:35:50;21.93;;;5.60;;
3155;SDS011;1588;50.892;7.082;2023-12-20T17:40:55;13.23;;;4.07;;
3155;SDS011;1588;50.892;7.082;2023-12-20T17:46:01;20.37;;;4.67;;
3155;SDS011;1588;50.892;7.082;2023-12-20T17:51:12;15.37;;;4.33;;
3155;SDS011;1588;50.892;7.082;2023-12-20T17:56:15;14.53;;;4.90;;
3155;SDS011;1588;50.892;7.082;2023-12-20T18:01:17;12.50;;;4.50;;
3155;SDS011;1588;50.892;7.082;2023-12-20T18:06:36;11.30;;;4.37;;
3155;SDS011;1588;50.892;7.082;2023-12-20T18:11:46;16.20;;;4.10;;
3155;SDS011;1588;50.892;7.082;2023-12-20T18:16:49;23.53;;;5.10;;
3155;SDS011;1588;50.892;7.082;2023-12-20T18:21:55;14.47;;;4.43;;
3155;SDS011;1588;50.892;7.082;2023-12-20T18:27:18;10.87;;;3.93;;
3155;SDS011;1588;50.892;7.082;2023-12-20T18:32:31;14.70;;;4.97;;
3155;SDS011;1588;50.892;7.082;2023-12-20T18:37:46;22.87;;;5.20;;
3155;SDS011;1588;50.892;7.082;2023-12-20T18:42:54;12.10;;;4.30;;
3155;SDS011;1588;50.892;7.082;2023-12-20T18:48:04;15.73;;;5.03;;
3155;SDS011;1588;50.892;7.082;2023-12-20T18:53:08;12.03;;;4.67;;
3155;SDS011;1588;50.892;7.082;2023-12-20T18:58:10;15.17;;;5.00;;
3155;SDS011;1588;50.892;7.082;2023-12-20T19:03:17;13.93;;;4.50;;
3155;SDS011;1588;50.892;7.082;2023-12-20T19:08:20;18.53;;;4.33;;
3155;SDS011;1588;50.892;7.082;2023-12-20T19:13:23;13.73;;;4.13;;
3155;SDS011;1588;50.892;7.082;2023-12-20T19:18:31;19.93;;;4.67;;
3155;SDS011;1588;50.892;7.082;2023-12-20T19:23:35;14.07;;;3.60;;
3155;SDS011;1588;50.892;7.082;2023-12-20T19:28:43;8.83;;;4.43;;
3155;SDS011;1588;50.892;7.082;2023-12-20T19:33:51;12.10;;;3.77;;
3155;SDS011;1588;50.892;7.082;2023-12-20T19:38:57;9.03;;;3.13;;
3155;SDS011;1588;50.892;7.082;2023-12-20T19:44:02;10.40;;;3.30;;
3155;SDS011;1588;50.892;7.082;2023-12-20T19:49:07;17.77;;;3.47;;
3155;SDS011;1588;50.892;7.082;2023-12-20T19:54:10;11.40;;;3.10;;
3155;SDS011;1588;50.892;7.082;2023-12-20T19:59:13;8.50;;;3.17;;
3155;SDS011;1588;50.892;7.082;2023-12-20T20:04:19;12.00;;;2.57;;
3155;SDS011;1588;50.892;7.082;2023-12-20T20:09:22;5.77;;;2.67;;
3155;SDS011;1588;50.892;7.082;2023-12-20T20:14:25;5.90;;;2.20;;
3155;SDS011;1588;50.892;7.082;2023-12-20T20:19:29;11.03;;;3.00;;
3155;SDS011;1588;50.892;7.082;2023-12-20T20:24:33;4.83;;;2.27;;
3155;SDS011;1588;50.892;7.082;2023-12-20T20:29:36;13.30;;;3.10;;
3155;SDS011;1588;50.892;7.082;2023-12-20T20:34:45;6.93;;;2.20;;
3155;SDS011;1588;50.892;7.082;2023-12-20T20:39:49;4.17;;;2.53;;
3155;SDS011;1588;50.892;7.082;2023-12-20T20:44:51;8.40;;;2.93;;
3155;SDS011;1588;50.892;7.082;2023-12-20T20:49:53;8.03;;;2.37;;
3155;SDS011;1588;50.892;7.082;2023-12-20T20:54:57;9.13;;;2.77;;
3155;SDS011;1588;50.892;7.082;2023-12-20T21:00:05;7.90;;;2.07;;
3155;SDS011;1588;50.892;7.082;2023-12-20T21:05:08;5.70;;;2.20;;
3155;SDS011;1588;50.892;7.082;2023-12-20T21:10:12;4.03;;;1.93;;
3155;SDS011;1588;50.892;7.082;2023-12-20T21:15:14;12.80;;;2.70;;
3155;SDS011;1588;50.892;7.082;2023-12-20T21:20:16;4.77;;;1.97;;
3155;SDS011;1588;50.892;7.082;2023-12-20T21:25:24;20.90;;;2.67;;
3155;SDS011;1588;50.892;7.082;2023-12-20T21:30:26;8.33;;;2.80;;
3155;SDS011;1588;50.892;7.082;2023-12-20T21:35:33;11.20;;;2.30;;
3155;SDS011;1588;50.892;7.082;2023-12-20T21:40:37;7.33;;;2.07;;
3155;SDS011;1588;50.892;7.082;2023-12-20T21:45:39;8.03;;;2.00;;
3155;SDS011;1588;50.892;7.082;2023-12-20T21:50:46;8.43;;;2.00;;
3155;SDS011;1588;50.892;7.082;2023-12-20T21:55:53;4.40;;;2.37;;
3155;SDS011;1588;50.892;7.082;2023-12-20T22:00:55;6.23;;;2.70;;
3155;SDS011;1588;50.892;7.082;2023-12-20T22:06:06;8.90;;;2.40;;
3155;SDS011;1588;50.892;7.082;2023-12-20T22:17:16;10.03;;;3.70;;
3155;SDS011;1588;50.892;7.082;2023-12-20T22:22:29;6.63;;;2.57;;
3155;SDS011;1588;50.892;7.082;2023-12-20T22:27:53;7.37;;;2.40;;
3155;SDS011;1588;50.892;7.082;2023-12-20T22:33:09;10.63;;;2.30;;
3155;SDS011;1588;50.892;7.082;2023-12-20T22:38:24;6.27;;;2.23;;
3155;SDS011;1588;50.892;7.082;2023-12-20T22:43:36;5.23;;;2.27;;
3155;SDS011;1588;50.892;7.082;2023-12-20T22:48:43;8.30;;;2.00;;
3155;SDS011;1588;50.892;7.082;2023-12-20T22:54:19;3.70;;;1.60;;
3155;SDS011;1588;50.892;7.082;2023-12-20T22:59:44;10.33;;;2.10;;
3155;SDS011;1588;50.892;7.082;2023-12-20T23:04:53;6.10;;;2.23;;
3155;SDS011;1588;50.892;7.082;2023-12-20T23:09:58;2.90;;;1.80;;
3155;SDS011;1588;50.892;7.082;2023-12-20T23:15:10;3.47;;;1.90;;
3155;SDS011;1588;50.892;7.082;2023-12-20T23:20:13;5.53;;;2.70;;
3155;SDS011;1588;50.892;7.082;2023-12-20T23:25:16;4.30;;;1.53;;
3155;SDS011;1588;50.892;7.082;2023-12-20T23:30:20;5.40;;;1.53;;
3155;SDS011;1588;50.892;7.082;2023-12-20T23:35:22;2.20;;;1.80;;
3155;SDS011;1588;50.892;7.082;2023-12-20T23:40:24;1.83;;;1.43;;
3155;SDS011;1588;50.892;7.082;2023-12-20T23:45:28;3.80;;;1.83;;
3155;SDS011;1588;50.892;7.082;2023-12-20T23:50:30;1.90;;;1.60;;
3155;SDS011;1588;50.892;7.082;2023-12-20T23:55:47;1.83;;;1.23;;
